ADDS METAR Data INFO
IDs: Format: Raw Decoded Include TAF

Data at: 0154 UTC 19 Jul 2018

K5T9 190035Z AUTO 16009KT 130V190 10SM CLR 40/10 A2984 RMK A01
K5T9 190015Z AUTO 16007KT 140V200 10SM CLR 41/09 A2984 RMK A01
K5T9 182355Z AUTO 11009G15KT 10SM CLR 40/09 A2984 RMK A01
K5T9 182335Z AUTO 18005G11KT 10SM CLR 41/09 A2985 RMK A01
K5T9 182315Z AUTO VRB06G15KT 10SM CLR 41/10 A2985 RMK A01
K5T9 182255Z AUTO VRB03G14KT 10SM CLR 41/11 A2986 RMK A01
K5T9 182235Z AUTO VRB05G12KT 10SM CLR 40/13 A2986 RMK A01
K5T9 182215Z AUTO VRB05G16KT 10SM CLR 41/12 A2987 RMK A01
K5T9 182155Z AUTO 12007KT 100V160 10SM CLR 41/13 A2987 RMK A01
K5T9 182135Z AUTO VRB05KT 10SM CLR 40/12 A2988 RMK A01
K5T9 182115Z AUTO VRB05G11KT 10SM CLR 41/12 A2989 RMK A01
K5T9 182055Z AUTO VRB04G11KT 10SM CLR 41/11 A2990 RMK A01
K5T9 182035Z AUTO 15008G14KT 10SM CLR 40/12 A2991 RMK A01
K5T9 182015Z AUTO 16009G14KT 10SM CLR 40/13 A2992 RMK A01
K5T9 181955Z AUTO 17007G14KT 120V220 10SM CLR 40/15 A2993 RMK A01
K5T9 181935Z AUTO VRB05G10KT 10SM CLR 38/15 A2994 RMK A01
K5T9 181915Z AUTO VRB05G11KT 10SM CLR 39/15 A2994 RMK A01
K5T9 181855Z AUTO 16007KT 100V190 10SM CLR 39/15 A2995 RMK A01
K5T9 181835Z AUTO VRB03G11KT 10SM CLR 37/16 A2996 RMK A01
K5T9 181815Z AUTO VRB05KT 10SM CLR 37/18 A2998 RMK A01
K5T9 181755Z AUTO VRB06G14KT 10SM CLR 36/18 A2998 RMK A01
K5T9 181735Z AUTO VRB05KT 10SM CLR 36/19 A2999 RMK A01
K5T9 181715Z AUTO 00000KT 10SM CLR 35/19 A3000 RMK A01
K5T9 181655Z AUTO 00000KT 9SM CLR 34/19 A3001 RMK A01
K5T9 181635Z AUTO 00000KT 10SM CLR 33/19 A3001 RMK A01
K5T9 181615Z AUTO VRB06KT 10SM CLR 33/19 A3001 RMK A01
K5T9 181555Z AUTO 14005KT 10SM CLR 32/19 A3002 RMK A01
K5T9 181535Z AUTO VRB03KT 10SM CLR 31/19 A3002 RMK A01
K5T9 181515Z AUTO VRB06KT 10SM CLR 31/19 A3003 RMK A01
K5T9 181455Z AUTO 17007KT 140V200 10SM CLR 31/19 A3003 RMK A01
K5T9 181435Z AUTO VRB05G11KT 10SM 30/19 A3003 RMK A01
K5T9 180615Z AUTO 13008KT 10SM CLR 31/18 A2999 RMK A01
K5T9 180555Z AUTO 12007KT 10SM CLR 31/16 A2999 RMK A01
K5T9 180535Z AUTO 13008KT 10SM CLR 32/16 A2999 RMK A01
K5T9 180515Z AUTO 12007KT 10SM CLR 32/16 A2998 RMK A01
K5T9 180455Z AUTO 12006KT 10SM CLR 32/15 A2998 RMK A01
K5T9 180435Z AUTO 11006KT 10SM CLR 31/13 A2997 RMK A01
K5T9 180415Z AUTO 11006KT 10SM 32/13 A2997 RMK A01
K5T9 180315Z AUTO 10SM RMK A01
K5T9 180255Z AUTO 12006KT 10SM CLR 34/10 A2995 RMK A01
K5T9 180235Z AUTO 11005KT 10SM CLR 35/10 A2994 RMK A01
K5T9 180215Z AUTO 12007KT 10SM CLR 35/11 A2994 RMK A01
K5T9 180155Z AUTO 11006KT 10SM CLR 36/11 A2994 RMK A01
K5T9 180135Z AUTO 12007KT 10SM CLR 37/11 A2994 RMK A01
K5T9 180115Z AUTO 12006G13KT 10SM 38/11 A2994 RMK A01
K5T9 180055Z AUTO 12011KT 10SM 38/11 A2993 RMK A01
K5T9 180035Z AUTO 12008G14KT 10SM CLR 39/12 A2993 RMK A01
K5T9 180015Z AUTO 13009KT 10SM 39/12 A2993 RMK A01
K5T9 172355Z AUTO 10SM CLR RMK A01 PNO
K5T9 172335Z AUTO VRB04G11KT 10SM CLR 39/13 A2994 RMK A01
K5T9 172315Z AUTO 14011G17KT 10SM 39/12 A2994 RMK A01
K5T9 172255Z AUTO VRB05G14KT 10SM CLR 39/12 A2995 RMK A01
K5T9 172235Z AUTO 11008G14KT 10SM CLR 39/13 A2995 RMK A01
K5T9 172215Z AUTO 11006G17KT 10SM CLR 39/13 A2996 RMK A01
K5T9 172155Z AUTO 14011KT 10SM CLR 40/14 A2996 RMK A01
K5T9 172135Z AUTO 19007G14KT 160V220 10SM CLR 40/14 A2997 RMK A01
K5T9 172115Z AUTO 12009KT 10SM CLR 39/15 A2997 RMK A01
K5T9 172055Z AUTO VRB06G15KT 10SM CLR 39/15 A2998 RMK A01
K5T9 172035Z AUTO 15007G17KT 120V180 10SM CLR 39/15 A2999 RMK A01
K5T9 172015Z AUTO 10008G16KT 070V140 10SM CLR 38/16 A2999 RMK A01
K5T9 171955Z AUTO 12008G18KT 080V150 9SM CLR 38/16 A3000 RMK A01
K5T9 171935Z AUTO VRB03G12KT 10SM CLR 37/17 A3001 RMK A01
K5T9 171915Z AUTO 11010KT 10SM CLR 38/18 A3002 RMK A01
K5T9 171855Z AUTO 12008G13KT 080V170 10SM CLR 37/18 A3002 RMK A01
K5T9 171835Z AUTO VRB05G13KT 10SM CLR 36/19 A3003 RMK A01
K5T9 171815Z AUTO 11007G15KT 10SM CLR 35/19 A3004 RMK A01
K5T9 171755Z AUTO 14008KT 9SM CLR 35/19 A3005 RMK A01
K5T9 171735Z AUTO VRB05G11KT 10SM CLR 34/20 A3006 RMK A01
K5T9 171715Z AUTO 14007KT 10SM CLR 33/20 A3006 RMK A01
K5T9 171655Z AUTO VRB05KT 10SM CLR 33/20 A3007 RMK A01
K5T9 171635Z AUTO VRB05KT 10SM CLR 32/20 A3007 RMK A01
K5T9 171615Z AUTO 15007KT 100V230 10SM CLR 31/21 A3007 RMK A01
K5T9 171555Z AUTO VRB06G11KT 10SM 30/21 A3007 RMK A01
K5T9 171535Z AUTO 11008KT 070V140 29/21 A3008 RMK A01